Rechercher aéroport 
image banner adimage banner ad
image banner ad

SWRQ - Aero Park

Situé à Teresina, Brazil

ICAO - , IATA -

Données fournies par Airmate  

Information générale

Coordonnées: S5°3'38" W42°40'28"
Élévation : 419 feet MSL.
Variation magnétique : -21° East
Voir autres Aéroports à Piauí

Données opérationnelles

Accessible au public
Heure actuelle UTC:
Heure actuelle locale:
METAR: SBTE 181225Z 06003KT 9999 SCT011 BKN020 BKN090 27/23 Q1011
TAF: TAF SBTE 180855Z 1812/1824 32005KT 9999 SCT020 TX35/1818Z TN27/1824Z BECMG 1812/1814 14005KT BECMG 1820/1822 20005KT RMK PGW
Voir NOTAMs / SUP AIP / TFR affectant cet aéroport [VIEW]
Fréquences de communication: [VIEW]

Pistes:

Identifiant RWYQFULongueur (ft)Largeur (ft)SurfaceLDA (ft)
17196859GRASS
35196859GRASS

Coordonnées de l'aéroport

Adresse: Teresina Brazil

Vue satellite de SWRQ